Hauptseite
METAR-TAF:

METAR-TAF

Flughäfen :

Flughafen Dar es Salaam

Daressalam, Tansania

Breite: 06-52S, Länge: 039-12E, Höhe: 55 m

Beobachtung

Neuester Wetterbericht von vor 1 Stunde und 23 Minuten, um 03:00 UTC
Wind 5 kt aus Süd/Südwest
Temperatur 22°C
Luftfeuchtigkeit 94%
Luftdruck 1017 hPa
Sichtweite 10 km oder mehr
Leicht bewölkt in der Höhe von 1100 ft

METAR: HTDA 230300Z 20005KT 9999 FEW011 22/21 Q1017 NOSIG

Zeit: 07:23 (04:23 UTC)

Prognose

Neuester Wetterbericht von vor 5 Stunden und 23 Minuten, um 23:00 UTC
Gültige Prognose vom 23 um 00 UTC bis 24 um 06 UTC
Wind kt aus Nord
Sichtweite 10 km oder mehr
Leicht bewölkt in der Höhe von 1500 ft

TAF: HTDA 222300Z 2300/2406 00000KT 9999 FEW015

Wetterbeobachtungen und Prognosen von mehr als 4000 Flughäfen (METAR und TAF Bericht).

Die verfügbaren Stationen werden durch gelbe und rote Markierungen auf der Karte dargestellt.

Führen Sie die Maus auf sie, um den Namen der Station zu sehen.

Darauf klicken, um die Beobachtung von Wetterbeobachtungen und Prognosen zu sehen.

Um die Karte zu ändern : klicken Sie auf den grünen Tasten mit einem schwarzen Kreuz Zum Vergrößern, auf den grünen Button mit einem Gedankenstrich zu verkleinern, oder auf die grünen Pfeile für benachbarte Karten.


METAR-TAF: